Time;durP1;ratioP1;P1;durP2;ratioP2;P2;SDS_P1;SDS_P2;PMS_P1;PMS_P2;Temp;Humidity;BMP_temperature;BMP_pressure;BME280_temperature;BME280_humidity;BME280_pressure;Samples;Min_cycle;Max_cycle;Signal;HPM_P1;HPM_P2
2021/09/17 00:01:19;;;;;;;;;;;;;;;18.41;66.07;97164.10;116902;1178;70423;-67
2021/09/17 00:03:48;;;;;;;;;;;;;;;18.41;65.91;97162.58;116868;1179;68422;-68
2021/09/17 00:06:18;;;;;;;;;;;;;;;18.41;65.06;97159.20;116882;1180;69264;-67
2021/09/17 00:08:48;;;;;;;;;;;;;;;18.42;63.67;97159.55;116890;1178;58643;-67
2021/09/17 00:11:17;;;;;;;;;;;;;;;18.42;64.13;97164.77;116884;1178;58738;-67
2021/09/17 00:13:47;;;;;;;;;;;;;;;18.43;63.95;97173.29;116979;1179;69725;-70
2021/09/17 00:16:16;;;;;;;;;;;;;;;18.44;64.74;97181.13;116879;1178;69203;-67
2021/09/17 00:18:45;;;;;;;;;;;;;;;18.33;66.58;97188.40;116857;1179;69437;-67
2021/09/17 00:21:14;;;;;;;;;;;;;;;18.27;67.39;97194.19;116836;1178;58710;-68
2021/09/17 00:23:44;;;;;;;;;;;;;;;18.17;70.30;97189.30;116840;1178;58694;-67
2021/09/17 00:26:14;;;;;;;;;;;;;;;18.18;68.53;97169.39;116841;1179;70573;-67
2021/09/17 00:28:43;;;;;;;;;;;;;;;18.08;70.89;97169.13;116894;1178;69153;-67
2021/09/17 00:31:12;;;;;;;;;;;;;;;18.02;72.55;97174.95;116891;1178;69077;-67
2021/09/17 00:33:41;;;;;;;;;;;;;;;17.97;72.05;97172.05;116852;1179;58675;-67
2021/09/17 00:36:10;;;;;;;;;;;;;;;18.00;70.43;97167.82;116903;1178;59132;-67
2021/09/17 00:38:40;;;;;;;;;;;;;;;18.00;70.81;97160.96;116879;1178;70561;-67
2021/09/17 00:41:11;;;;;;;;;;;;;;;17.94;71.36;97150.33;116866;1179;68459;-67
2021/09/17 00:43:40;;;;;;;;;;;;;;;17.88;71.67;97150.77;116917;1179;68063;-67
2021/09/17 00:46:10;;;;;;;;;;;;;;;17.78;73.10;97149.88;116885;1178;58750;-67
2021/09/17 00:48:39;;;;;;;;;;;;;;;17.73;72.79;97150.58;116900;1179;58774;-67
2021/09/17 00:51:08;;;;;;;;;;;;;;;17.70;73.06;97157.23;116928;1178;70571;-67
2021/09/17 00:53:38;;;;;;;;;;;;;;;17.69;71.94;97153.95;116918;1180;68284;-67
2021/09/17 00:56:08;;;;;;;;;;;;;;;17.68;73.50;97154.27;116995;1178;69224;-67
2021/09/17 00:58:37;;;;;;;;;;;;;;;17.66;72.80;97145.10;116864;1179;58694;-67
2021/09/17 01:01:07;;;;;;;;;;;;;;;17.67;71.99;97143.45;116929;1178;58673;-67
2021/09/17 01:03:37;;;;;;;;;;;;;;;17.66;72.53;97139.66;116898;1178;70553;-67
2021/09/17 01:06:06;;;;;;;;;;;;;;;17.67;72.03;97142.73;116906;1179;68495;-67
2021/09/17 01:08:37;;;;;;;;;;;;;;;17.67;70.94;97137.67;116881;1179;69234;-67
2021/09/17 01:11:07;;;;;;;;;;;;;;;17.67;72.41;97137.51;116934;1178;59174;-67
2021/09/17 01:13:49;;;;;;;;;;;;;;;17.67;70.75;97136.80;116888;1179;58702;-67
2021/09/17 01:16:18;;;;;;;;;;;;;;;17.67;71.07;97136.05;116934;1179;70557;-67
2021/09/17 01:18:50;;;;;;;;;;;;;;;17.66;73.29;97131.79;116887;1179;69446;-67
2021/09/17 01:21:20;;;;;;;;;;;;;;;17.64;73.85;97129.89;116922;1178;69278;-67
2021/09/17 01:23:50;;;;;;;;;;;;;;;17.61;72.27;97125.22;116969;1179;58745;-67
2021/09/17 01:26:20;;;;;;;;;;;;;;;17.61;72.11;97119.55;116900;1178;58753;-67
2021/09/17 01:28:50;;;;;;;;;;;;;;;17.60;72.95;97114.20;116893;1179;69012;-67
2021/09/17 01:31:19;;;;;;;;;;;;;;;17.59;73.53;97109.11;116857;1180;69605;-67
2021/09/17 01:33:49;;;;;;;;;;;;;;;17.57;72.13;97108.35;116917;1179;68267;-68
2021/09/17 01:36:19;;;;;;;;;;;;;;;17.57;73.45;97104.55;116889;1179;58691;-67
2021/09/17 01:38:49;;;;;;;;;;;;;;;17.54;73.13;97101.30;116959;1178;58672;-66
2021/09/17 01:41:18;;;;;;;;;;;;;;;17.53;71.57;97096.48;116526;1179;70556;-66
2021/09/17 01:43:49;;;;;;;;;;;;;;;17.54;72.97;97086.90;116663;1179;69332;-67
2021/09/17 01:46:20;;;;;;;;;;;;;;;17.53;70.80;97086.24;116900;1179;69286;-67
2021/09/17 01:48:50;;;;;;;;;;;;;;;17.52;71.65;97085.98;116883;1178;58756;-68
2021/09/17 01:51:19;;;;;;;;;;;;;;;17.49;71.81;97085.61;116819;1178;58739;-67
2021/09/17 01:53:49;;;;;;;;;;;;;;;17.47;74.83;97084.84;116558;1179;70149;-67
2021/09/17 01:56:21;;;;;;;;;;;;;;;17.44;73.31;97082.34;116700;1178;68455;-67
2021/09/17 01:58:51;;;;;;;;;;;;;;;17.39;74.21;97080.67;116898;1179;69665;-67
2021/09/17 02:01:20;;;;;;;;;;;;;;;17.39;73.07;97082.69;116934;1178;58685;-66
2021/09/17 02:03:50;;;;;;;;;;;;;;;17.38;72.00;97082.39;116952;1178;58743;-67
2021/09/17 02:06:22;;;;;;;;;;;;;;;17.38;71.99;97078.52;116938;1178;71117;-67
2021/09/17 02:08:52;;;;;;;;;;;;;;;17.39;72.68;97078.95;116876;1179;69202;-67
2021/09/17 02:11:23;;;;;;;;;;;;;;;17.39;72.04;97075.79;116860;1179;69269;-67
2021/09/17 02:13:52;;;;;;;;;;;;;;;17.39;73.27;97074.04;116971;1179;58656;-67
2021/09/17 02:16:22;;;;;;;;;;;;;;;17.38;72.80;97074.48;116925;1179;58675;-67
2021/09/17 02:18:51;;;;;;;;;;;;;;;17.37;74.24;97073.19;116913;1178;70543;-67
2021/09/17 02:21:22;;;;;;;;;;;;;;;17.36;73.83;97070.33;116942;1178;68430;-67
2021/09/17 02:23:51;;;;;;;;;;;;;;;17.40;71.16;97068.09;116910;1178;69765;-67
2021/09/17 02:26:21;;;;;;;;;;;;;;;17.40;71.80;97058.54;116840;1178;58746;-67
2021/09/17 02:28:50;;;;;;;;;;;;;;;17.40;71.54;97055.77;116825;1178;58714;-67
2021/09/17 02:31:20;;;;;;;;;;;;;;;17.40;71.37;97050.11;116903;1179;70381;-67
2021/09/17 02:33:52;;;;;;;;;;;;;;;17.40;73.64;97046.45;116920;1179;68305;-67
2021/09/17 02:36:22;;;;;;;;;;;;;;;17.39;73.00;97045.80;116887;1178;69261;-66
2021/09/17 02:38:52;;;;;;;;;;;;;;;17.40;71.98;97041.89;116947;1178;58830;-68
2021/09/17 02:41:22;;;;;;;;;;;;;;;17.40;71.35;97038.70;116833;1176;58740;-67
2021/09/17 02:43:53;;;;;;;;;;;;;;;17.38;73.31;97048.04;116947;1178;70782;-67
2021/09/17 02:46:22;;;;;;;;;;;;;;;17.37;73.26;97049.02;116943;1179;68474;-67
2021/09/17 02:48:52;;;;;;;;;;;;;;;17.36;72.78;97049.64;116906;1178;68707;-67
2021/09/17 02:51:22;;;;;;;;;;;;;;;17.35;71.92;97044.83;116865;1179;58703;-67
2021/09/17 02:53:53;;;;;;;;;;;;;;;17.30;75.11;97042.73;116933;1177;58735;-67
2021/09/17 02:56:22;;;;;;;;;;;;;;;17.23;75.75;97040.42;116886;1179;69561;-67
2021/09/17 02:58:52;;;;;;;;;;;;;;;17.19;75.63;97037.01;116882;1179;69162;-67
2021/09/17 03:01:21;;;;;;;;;;;;;;;17.18;73.96;97029.89;116828;1179;69234;-67
2021/09/17 03:03:51;;;;;;;;;;;;;;;17.20;72.52;97029.02;116898;1179;58724;-67
2021/09/17 03:06:25;;;;;;;;;;;;;;;17.22;72.03;97025.91;116945;1179;58702;-67
2021/09/17 03:08:55;;;;;;;;;;;;;;;17.24;72.46;97021.36;116854;1178;70568;-67
2021/09/17 03:11:25;;;;;;;;;;;;;;;17.23;73.74;97023.86;116545;1179;68883;-67
2021/09/17 03:13:55;;;;;;;;;;;;;;;17.21;74.99;97028.33;116620;1179;68510;-67
2021/09/17 03:16:24;;;;;;;;;;;;;;;17.20;74.55;97030.88;116625;1179;58770;-67
2021/09/17 03:18:55;;;;;;;;;;;;;;;17.21;72.82;97028.30;116639;1180;59216;-67
2021/09/17 03:21:25;;;;;;;;;;;;;;;17.22;72.48;97028.95;116686;1179;70564;-67
2021/09/17 03:23:54;;;;;;;;;;;;;;;17.21;73.26;97027.87;116755;1179;68423;-67
2021/09/17 03:26:24;;;;;;;;;;;;;;;17.18;74.36;97021.61;116657;1178;69226;-66
2021/09/17 03:28:54;;;;;;;;;;;;;;;17.17;73.73;97025.74;116732;1179;59237;-66
2021/09/17 03:31:24;;;;;;;;;;;;;;;17.14;76.42;97024.73;116866;1179;57955;-67
2021/09/17 03:33:54;;;;;;;;;;;;;;;17.10;75.54;97023.75;116873;1179;70616;-66
2021/09/17 03:36:24;;;;;;;;;;;;;;;17.08;75.52;97024.38;116917;1179;68466;-67
2021/09/17 03:38:54;;;;;;;;;;;;;;;17.05;75.84;97021.59;116875;1179;68449;-67
2021/09/17 03:41:23;;;;;;;;;;;;;;;17.05;75.23;97025.33;116988;1179;59240;-67
2021/09/17 03:43:53;;;;;;;;;;;;;;;17.03;76.03;97020.60;116853;1179;58709;-67
2021/09/17 03:46:22;;;;;;;;;;;;;;;16.99;77.32;97019.23;116841;1179;70559;-67
2021/09/17 03:48:51;;;;;;;;;;;;;;;16.95;76.85;97017.50;116889;1178;69228;-67
2021/09/17 03:51:20;;;;;;;;;;;;;;;16.95;76.53;97016.13;116884;1179;68444;-67
2021/09/17 03:53:50;;;;;;;;;;;;;;;16.94;76.67;97015.95;116869;1179;58698;-67
2021/09/17 03:56:19;;;;;;;;;;;;;;;16.94;76.03;97022.82;116959;1178;58725;-67
2021/09/17 03:58:49;;;;;;;;;;;;;;;16.95;76.62;97017.76;116640;1179;69971;-67
2021/09/17 04:01:18;;;;;;;;;;;;;;;16.95;76.75;97013.14;116563;1178;70270;-67
2021/09/17 04:03:47;;;;;;;;;;;;;;;16.94;76.99;97010.04;116632;1178;69118;-66
2021/09/17 04:06:17;;;;;;;;;;;;;;;16.91;76.38;97005.27;116720;1179;58729;-66
2021/09/17 04:08:46;;;;;;;;;;;;;;;16.96;75.20;97002.48;116631;1180;58734;-66
2021/09/17 04:11:16;;;;;;;;;;;;;;;16.94;75.79;97000.54;116686;1179;70829;-68
2021/09/17 04:13:45;;;;;;;;;;;;;;;16.95;75.52;97001.06;116851;1178;69326;-67
2021/09/17 04:16:14;;;;;;;;;;;;;;;16.95;75.23;97002.19;116836;1179;69244;-67
2021/09/17 04:18:43;;;;;;;;;;;;;;;16.97;74.35;97009.40;116848;1178;58734;-67
2021/09/17 04:21:11;;;;;;;;;;;;;;;16.96;76.20;97008.27;116866;1179;58701;-66
2021/09/17 04:23:40;;;;;;;;;;;;;;;16.94;76.92;97007.97;116908;1178;69749;-66
2021/09/17 04:26:09;;;;;;;;;;;;;;;16.95;74.80;97008.27;116622;1178;69287;-66
2021/09/17 04:28:38;;;;;;;;;;;;;;;16.96;77.14;97012.72;116920;1178;68595;-67
2021/09/17 04:31:07;;;;;;;;;;;;;;;16.96;75.17;97006.19;116917;1178;58678;-67
2021/09/17 04:33:36;;;;;;;;;;;;;;;17.00;75.40;97007.55;116905;1177;58729;-67
2021/09/17 04:36:05;;;;;;;;;;;;;;;16.99;76.17;97005.67;116881;1179;70686;-67
2021/09/17 04:38:34;;;;;;;;;;;;;;;17.01;76.78;97004.76;116896;1179;69307;-66
2021/09/17 04:41:03;;;;;;;;;;;;;;;17.01;77.96;97008.98;116886;1179;69183;-67
2021/09/17 04:43:32;;;;;;;;;;;;;;;17.00;76.90;97005.38;116870;1179;58753;-67
2021/09/17 04:46:02;;;;;;;;;;;;;;;17.02;75.85;97008.35;116861;1179;58722;-67
2021/09/17 04:48:31;;;;;;;;;;;;;;;17.03;75.88;97010.36;116590;1179;69816;-67
2021/09/17 04:51:00;;;;;;;;;;;;;;;17.05;75.71;97009.11;116585;1179;68394;-67
2021/09/17 04:53:30;;;;;;;;;;;;;;;17.05;75.05;97003.61;116652;1179;69284;-67
2021/09/17 04:56:00;;;;;;;;;;;;;;;17.08;75.54;97005.13;116553;1179;58820;-70
2021/09/17 04:58:45;;;;;;;;;;;;;;;17.11;75.59;97008.38;116853;1178;58745;-67
2021/09/17 05:01:14;;;;;;;;;;;;;;;17.14;74.56;97006.09;116874;1178;70413;-66
2021/09/17 05:03:43;;;;;;;;;;;;;;;17.16;75.58;97004.45;116640;1180;68553;-67
2021/09/17 05:06:13;;;;;;;;;;;;;;;17.19;75.43;97005.00;116871;1178;69015;-67
2021/09/17 05:08:42;;;;;;;;;;;;;;;17.23;75.48;97003.53;116859;1179;58767;-69
2021/09/17 05:11:11;;;;;;;;;;;;;;;17.27;74.92;97000.73;116885;1178;58721;-66
2021/09/17 05:13:39;;;;;;;;;;;;;;;17.36;73.46;97002.16;116591;1178;70450;-67
2021/09/17 05:16:09;;;;;;;;;;;;;;;17.42;73.80;96996.59;116685;1179;69096;-67
2021/09/17 05:18:38;;;;;;;;;;;;;;;17.47;74.77;96997.11;116700;1179;69267;-67
2021/09/17 05:21:08;;;;;;;;;;;;;;;17.50;74.31;96997.64;116684;1179;59174;-67
2021/09/17 05:23:37;;;;;;;;;;;;;;;17.52;73.87;97005.85;116618;1179;58677;-67
2021/09/17 05:26:06;;;;;;;;;;;;;;;17.55;74.63;97007.62;116925;1179;69643;-67
2021/09/17 05:28:35;;;;;;;;;;;;;;;17.55;74.42;97009.52;116854;1178;69274;-67
2021/09/17 05:31:04;;;;;;;;;;;;;;;17.58;73.33;97008.76;116544;1179;69571;-67
2021/09/17 05:33:33;;;;;;;;;;;;;;;17.59;74.72;97007.71;116656;1179;58710;-67
2021/09/17 05:36:02;;;;;;;;;;;;;;;17.61;74.34;96998.61;116613;1178;58748;-66
2021/09/17 05:38:32;;;;;;;;;;;;;;;17.60;74.10;96999.50;116651;1179;70711;-67
2021/09/17 05:41:01;;;;;;;;;;;;;;;17.63;74.66;96993.63;116635;1179;69112;-67
2021/09/17 05:43:30;;;;;;;;;;;;;;;17.66;73.63;96993.08;116631;1178;69270;-67
2021/09/17 05:45:59;;;;;;;;;;;;;;;17.70;72.97;96990.02;116630;1178;59124;-67
2021/09/17 05:48:28;;;;;;;;;;;;;;;17.74;74.62;96989.77;116611;1179;58646;-67
2021/09/17 05:50:58;;;;;;;;;;;;;;;17.77;74.75;96991.36;116498;1179;70095;-66
2021/09/17 05:53:27;;;;;;;;;;;;;;;17.83;74.13;96991.98;116600;1178;69008;-66
2021/09/17 05:55:56;;;;;;;;;;;;;;;17.90;73.61;96985.44;116564;1179;68770;-67
2021/09/17 05:58:30;;;;;;;;;;;;;;;17.98;73.91;96985.02;116569;1178;58727;-66
2021/09/17 06:00:59;;;;;;;;;;;;;;;18.10;73.71;96986.69;116625;1178;58694;-66
2021/09/17 06:03:29;;;;;;;;;;;;;;;18.22;72.30;96986.75;116672;1178;69619;-66
2021/09/17 06:05:58;;;;;;;;;;;;;;;18.36;72.23;96990.88;116622;1178;69280;-66
2021/09/17 06:08:27;;;;;;;;;;;;;;;18.45;72.12;96991.97;116615;1179;69352;-66
2021/09/17 06:10:56;;;;;;;;;;;;;;;18.52;72.39;96994.42;116620;1179;58723;-67
2021/09/17 06:13:25;;;;;;;;;;;;;;;18.57;71.70;96987.50;116698;1179;58694;-67
2021/09/17 06:15:55;;;;;;;;;;;;;;;18.61;71.59;96984.93;116756;1178;69919;-67
2021/09/17 06:18:41;;;;;;;;;;;;;;;18.64;71.92;96982.15;116734;1179;68467;-67
2021/09/17 06:21:10;;;;;;;;;;;;;;;18.65;71.16;96982.86;116704;1179;69040;-67
2021/09/17 06:23:41;;;;;;;;;;;;;;;18.67;70.79;96987.97;116681;1179;58771;-67
2021/09/17 06:26:10;;;;;;;;;;;;;;;18.71;70.53;96986.80;116748;1179;58733;-67
2021/09/17 06:28:39;;;;;;;;;;;;;;;18.77;70.04;96988.92;116697;1179;70690;-66
2021/09/17 06:31:08;;;;;;;;;;;;;;;18.85;69.76;96990.73;116757;1179;69219;-67
2021/09/17 06:33:38;;;;;;;;;;;;;;;18.91;69.95;96992.04;116705;1178;69061;-67
2021/09/17 06:36:07;;;;;;;;;;;;;;;18.96;69.95;96992.43;116740;1179;59180;-67
2021/09/17 06:38:37;;;;;;;;;;;;;;;19.03;69.76;96995.54;116859;1179;58753;-67
2021/09/17 06:41:06;;;;;;;;;;;;;;;19.07;69.22;96994.52;116709;1180;70071;-67
2021/09/17 06:43:35;;;;;;;;;;;;;;;19.13;69.10;96994.83;116724;1179;68934;-68
2021/09/17 06:46:04;;;;;;;;;;;;;;;19.19;70.25;96995.64;116864;1179;69031;-67
2021/09/17 06:48:33;;;;;;;;;;;;;;;19.22;70.00;96990.92;116802;1179;58812;-68
2021/09/17 06:51:03;;;;;;;;;;;;;;;19.22;71.81;96992.64;116902;1178;58658;-66
2021/09/17 06:53:32;;;;;;;;;;;;;;;19.17;71.95;96995.21;116859;1178;69893;-67
2021/09/17 06:56:01;;;;;;;;;;;;;;;19.18;71.53;96996.96;116687;1179;68057;-67
2021/09/17 06:58:33;;;;;;;;;;;;;;;19.15;72.83;96997.44;116859;1179;69242;-67
2021/09/17 07:01:03;;;;;;;;;;;;;;;19.16;73.04;96994.60;116832;1179;58721;-67
2021/09/17 07:03:32;;;;;;;;;;;;;;;19.17;73.14;96993.93;116749;1178;58802;-67
2021/09/17 07:06:02;;;;;;;;;;;;;;;19.21;71.80;96995.75;116742;1179;68875;-67
2021/09/17 07:08:31;;;;;;;;;;;;;;;19.29;71.39;96995.91;116700;1179;68851;-67
2021/09/17 07:11:00;;;;;;;;;;;;;;;19.39;70.98;96995.91;116699;1179;68509;-67
2021/09/17 07:13:30;;;;;;;;;;;;;;;19.48;71.12;96994.67;116712;1179;58713;-67
2021/09/17 07:16:00;;;;;;;;;;;;;;;19.58;72.55;96997.12;116730;1179;58708;-67
2021/09/17 07:18:29;;;;;;;;;;;;;;;19.72;71.11;96998.76;116643;1179;70002;-67
2021/09/17 07:20:58;;;;;;;;;;;;;;;19.87;69.66;96997.49;116698;1179;68578;-67
2021/09/17 07:23:28;;;;;;;;;;;;;;;20.01;68.92;97002.27;116752;1179;68297;-67
2021/09/17 07:25:57;;;;;;;;;;;;;;;20.09;68.48;96999.38;116860;1179;58718;-67
2021/09/17 07:28:26;;;;;;;;;;;;;;;20.19;68.00;96999.09;116889;1178;58640;-67
2021/09/17 07:30:55;;;;;;;;;;;;;;;20.24;67.49;96999.88;116863;1179;70568;-67
2021/09/17 07:33:24;;;;;;;;;;;;;;;20.25;68.02;97002.07;116817;1179;69073;-67
2021/09/17 07:35:53;;;;;;;;;;;;;;;20.27;66.77;97003.36;116818;1178;69373;-67
2021/09/17 07:38:22;;;;;;;;;;;;;;;20.32;67.11;96998.73;116903;1179;58740;-67
2021/09/17 07:40:51;;;;;;;;;;;;;;;20.35;67.87;97002.23;116838;1179;58720;-68
2021/09/17 07:43:20;;;;;;;;;;;;;;;20.34;67.90;97001.64;116865;1179;70597;-67
2021/09/17 07:45:48;;;;;;;;;;;;;;;20.41;67.46;97000.90;116870;1179;68402;-67
2021/09/17 07:48:17;;;;;;;;;;;;;;;20.46;67.47;97002.24;116712;1178;68439;-67
2021/09/17 07:50:47;;;;;;;;;;;;;;;20.52;67.13;96999.73;116725;1178;58726;-66
2021/09/17 07:53:16;;;;;;;;;;;;;;;20.59;66.84;97000.31;116781;1178;58800;-67
2021/09/17 07:55:45;;;;;;;;;;;;;;;20.67;66.62;96997.72;116786;1179;70589;-67
2021/09/17 07:58:14;;;;;;;;;;;;;;;20.70;66.58;96992.13;116749;1178;69100;-66
2021/09/17 08:00:43;;;;;;;;;;;;;;;20.75;65.23;96991.65;116708;1179;69283;-66
2021/09/17 08:03:12;;;;;;;;;;;;;;;20.80;64.93;96989.10;116754;1179;58725;-66
2021/09/17 08:05:42;;;;;;;;;;;;;;;20.83;64.81;96990.69;116728;1179;58717;-69
2021/09/17 08:08:11;;;;;;;;;;;;;;;20.77;63.99;96988.86;116843;1179;70675;-67
2021/09/17 08:10:39;;;;;;;;;;;;;;;20.70;64.21;96986.27;116758;1178;69107;-67
2021/09/17 08:13:08;;;;;;;;;;;;;;;20.80;64.64;96984.09;116836;1178;69301;-67
2021/09/17 08:15:37;;;;;;;;;;;;;;;20.97;63.89;96993.26;116769;1179;58740;-68
2021/09/17 08:18:06;;;;;;;;;;;;;;;20.95;64.57;96993.54;116781;1179;58737;-67
2021/09/17 08:20:37;;;;;;;;;;;;;;;20.87;64.86;96990.70;116782;1179;69789;-67
2021/09/17 08:23:06;;;;;;;;;;;;;;;20.71;65.68;96989.27;116829;1179;68562;-68
2021/09/17 08:25:35;;;;;;;;;;;;;;;20.63;66.46;96986.20;116818;1179;69061;-67
2021/09/17 08:28:04;;;;;;;;;;;;;;;20.65;65.94;96982.78;116929;1179;59130;-67
2021/09/17 08:30:33;;;;;;;;;;;;;;;20.73;65.99;96982.98;116887;1179;58677;-67
2021/09/17 08:33:03;;;;;;;;;;;;;;;20.84;65.87;96981.34;116879;1179;69781;-67
2021/09/17 08:35:32;;;;;;;;;;;;;;;20.76;65.70;96978.77;116828;1179;69257;-67
2021/09/17 08:38:01;;;;;;;;;;;;;;;21.11;66.28;96981.23;116848;1179;67562;-68
2021/09/17 08:40:30;;;;;;;;;;;;;;;21.40;64.59;96982.70;116828;1179;58734;-67
2021/09/17 08:43:01;;;;;;;;;;;;;;;21.41;64.19;96982.67;116788;1179;58755;-67
2021/09/17 08:45:31;;;;;;;;;;;;;;;21.41;63.97;96981.83;116883;1179;70578;-67
2021/09/17 08:48:01;;;;;;;;;;;;;;;21.26;64.27;96980.84;116910;1179;69193;-68
2021/09/17 08:50:31;;;;;;;;;;;;;;;21.21;65.11;96983.39;116883;1179;69318;-67
2021/09/17 08:53:00;;;;;;;;;;;;;;;21.01;65.48;96979.91;116828;1179;58681;-68
2021/09/17 08:55:29;;;;;;;;;;;;;;;20.61;66.22;96984.62;116865;1179;58721;-67
2021/09/17 08:57:58;;;;;;;;;;;;;;;20.39;67.47;96995.70;116845;1179;69741;-67
2021/09/17 09:00:27;;;;;;;;;;;;;;;20.16;68.24;96999.56;116845;1178;68415;-67
2021/09/17 09:02:59;;;;;;;;;;;;;;;19.94;68.08;97004.09;116838;1179;69044;-66
2021/09/17 09:05:33;;;;;;;;;;;;;;;19.87;69.05;97002.13;116849;1179;58685;-68
2021/09/17 09:08:03;;;;;;;;;;;;;;;19.84;69.34;97000.50;116933;1179;58738;-67
2021/09/17 09:10:32;;;;;;;;;;;;;;;19.82;69.64;97002.91;116877;1179;69823;-67
2021/09/17 09:13:05;;;;;;;;;;;;;;;19.53;70.30;96998.48;116651;1181;69223;-67
2021/09/17 09:15:35;;;;;;;;;;;;;;;19.35;71.27;96993.45;116877;1179;68422;-67
2021/09/17 09:18:12;;;;;;;;;;;;;;;19.32;72.32;96990.27;116829;1179;58737;-67
2021/09/17 09:20:45;;;;;;;;;;;;;;;19.31;72.06;96985.95;116905;1178;58746;-66
2021/09/17 09:23:20;;;;;;;;;;;;;;;19.02;73.33;96985.27;116902;1178;70593;-67
2021/09/17 09:25:51;;;;;;;;;;;;;;;19.10;72.42;96981.36;116835;1178;68593;-67
2021/09/17 09:28:24;;;;;;;;;;;;;;;19.10;73.34;96976.55;116798;1179;67426;-67
2021/09/17 09:30:54;;;;;;;;;;;;;;;18.92;74.47;96970.38;116837;1179;58733;-67
2021/09/17 09:33:30;;;;;;;;;;;;;;;18.78;75.66;96970.52;116793;1179;58750;-67
2021/09/17 09:36:08;;;;;;;;;;;;;;;18.75;75.89;96965.66;116799;1179;70538;-69
2021/09/17 09:38:40;;;;;;;;;;;;;;;18.82;75.19;96964.93;116851;1179;68438;-67
2021/09/17 09:41:10;;;;;;;;;;;;;;;18.74;76.52;96964.29;116819;1179;69571;-67
2021/09/17 09:43:40;;;;;;;;;;;;;;;18.84;75.38;96964.37;116850;1178;58763;-67
2021/09/17 09:46:27;;;;;;;;;;;;;;;18.93;74.61;96961.02;116791;1179;58743;-67
2021/09/17 09:48:59;;;;;;;;;;;;;;;19.00;74.76;96966.75;116816;1179;69772;-67
2021/09/17 09:51:32;;;;;;;;;;;;;;;19.01;74.59;96969.06;116850;1178;69484;-68
2021/09/17 09:54:03;;;;;;;;;;;;;;;19.02;74.19;96960.92;116904;1179;69214;-67
2021/09/17 09:56:33;;;;;;;;;;;;;;;19.02;74.03;96960.02;116874;1178;58735;-66
2021/09/17 09:59:04;;;;;;;;;;;;;;;19.05;74.30;96959.51;116882;1178;58752;-67
2021/09/17 10:01:34;;;;;;;;;;;;;;;19.09;73.85;96954.98;116783;1179;70394;-67
2021/09/17 10:04:05;;;;;;;;;;;;;;;19.12;73.79;96950.15;116765;1179;68478;-67
2021/09/17 10:06:36;;;;;;;;;;;;;;;19.18;73.83;96948.42;116670;1179;68383;-67
2021/09/17 10:09:06;;;;;;;;;;;;;;;19.26;73.43;96944.56;116698;1179;58765;-67
2021/09/17 10:11:36;;;;;;;;;;;;;;;19.35;72.85;96935.70;116810;1179;58749;-67
2021/09/17 10:14:07;;;;;;;;;;;;;;;19.40;72.62;96931.46;116789;1177;70632;-66
2021/09/17 10:16:37;;;;;;;;;;;;;;;19.53;72.08;96930.19;116776;1179;69049;-67
2021/09/17 10:19:07;;;;;;;;;;;;;;;19.60;72.09;96931.45;116770;1178;68612;-69
2021/09/17 10:21:45;;;;;;;;;;;;;;;19.71;71.15;96931.11;116917;1178;58742;-67
2021/09/17 10:24:26;;;;;;;;;;;;;;;19.84;70.90;96934.56;116753;1178;58733;-68
2021/09/17 10:26:56;;;;;;;;;;;;;;;20.06;70.45;96937.46;116812;1178;70890;-66
2021/09/17 10:29:43;;;;;;;;;;;;;;;20.29;70.08;96929.68;116801;1179;69497;-65
2021/09/17 10:32:27;;;;;;;;;;;;;;;20.67;69.70;96927.80;116889;1179;69060;-67
2021/09/17 10:35:13;;;;;;;;;;;;;;;21.19;68.99;96925.34;116590;1179;58705;-66
2021/09/17 10:38:00;;;;;;;;;;;;;;;21.54;66.65;96919.27;116888;1178;58756;-67
2021/09/17 10:40:35;;;;;;;;;;;;;;;21.66;65.60;96915.39;116750;1178;69697;-66
2021/09/17 10:43:10;;;;;;;;;;;;;;;21.69;65.59;96914.10;116719;1178;69249;-67
2021/09/17 10:45:45;;;;;;;;;;;;;;;21.79;65.29;96903.66;116730;1179;68550;-66
2021/09/17 10:48:15;;;;;;;;;;;;;;;21.85;65.02;96896.95;116788;1179;58734;-68
2021/09/17 10:50:52;;;;;;;;;;;;;;;21.99;65.00;96891.20;116942;1178;58735;-67
2021/09/17 10:53:40;;;;;;;;;;;;;;;22.15;63.92;96891.77;116896;1178;70582;-67
2021/09/17 10:56:12;;;;;;;;;;;;;;;22.23;63.52;96888.96;116891;1178;68375;-67
2021/09/17 10:59:03;;;;;;;;;;;;;;;22.25;63.02;96887.50;116937;1177;69171;-67
2021/09/17 11:01:50;;;;;;;;;;;;;;;22.15;63.25;96882.20;116884;1178;58738;-67
2021/09/17 11:04:28;;;;;;;;;;;;;;;22.15;63.84;96887.73;116914;1178;58726;-68
2021/09/17 11:07:32;;;;;;;;;;;;;;;21.97;63.77;96878.52;116722;1179;70650;-67
2021/09/17 11:10:03;;;;;;;;;;;;;;;21.80;64.56;96872.23;116816;1178;69491;-66
2021/09/17 11:12:33;;;;;;;;;;;;;;;21.80;64.26;96871.21;116806;1178;68742;-66
2021/09/17 11:15:11;;;;;;;;;;;;;;;21.58;64.21;96877.57;116840;1178;58748;-66
2021/09/17 11:17:40;;;;;;;;;;;;;;;21.59;64.39;96876.95;116859;1178;58791;-67
2021/09/17 11:20:13;;;;;;;;;;;;;;;21.56;64.04;96872.03;116908;1179;69503;-67
2021/09/17 11:23:02;;;;;;;;;;;;;;;21.56;64.33;96866.27;116884;1178;68489;-68
2021/09/17 11:25:33;;;;;;;;;;;;;;;21.65;64.19;96854.59;116810;1179;68265;-67
2021/09/17 11:28:03;;;;;;;;;;;;;;;21.53;65.02;96842.84;116855;1178;58727;-63
2021/09/17 11:30:33;;;;;;;;;;;;;;;21.55;64.90;96839.05;116902;1179;58735;-68
2021/09/17 11:33:15;;;;;;;;;;;;;;;21.54;65.11;96838.35;116854;1178;70777;-67
2021/09/17 11:35:43;;;;;;;;;;;;;;;21.61;65.06;96844.73;116913;1179;69062;-66
2021/09/17 11:38:13;;;;;;;;;;;;;;;21.56;65.16;96845.35;116948;1178;69581;-67
2021/09/17 11:40:52;;;;;;;;;;;;;;;21.57;65.38;96845.12;116853;1178;58681;-68
2021/09/17 11:43:22;;;;;;;;;;;;;;;21.57;65.34;96844.25;116861;1179;58758;-67
2021/09/17 11:45:53;;;;;;;;;;;;;;;21.55;65.75;96842.73;116847;1178;70367;-67
2021/09/17 11:48:23;;;;;;;;;;;;;;;21.65;65.14;96841.20;116847;1178;68626;-67
2021/09/17 11:50:53;;;;;;;;;;;;;;;21.63;65.57;96840.05;116794;1179;69351;-67
2021/09/17 11:53:22;;;;;;;;;;;;;;;21.68;65.00;96837.46;116849;1178;59197;-67
2021/09/17 11:55:51;;;;;;;;;;;;;;;21.73;64.87;96828.52;116872;1178;58711;-67
2021/09/17 11:58:20;;;;;;;;;;;;;;;21.93;63.75;96819.75;116881;1178;70626;-67
2021/09/17 12:00:49;;;;;;;;;;;;;;;22.15;63.20;96818.89;116869;1179;68866;-67
2021/09/17 12:03:18;;;;;;;;;;;;;;;22.27;63.12;96819.97;116822;1179;67376;-67
2021/09/17 12:05:50;;;;;;;;;;;;;;;22.35;62.93;96821.55;116866;1178;58732;-67
2021/09/17 12:08:19;;;;;;;;;;;;;;;22.40;62.90;96823.41;116829;1179;58702;-68
2021/09/17 12:10:58;;;;;;;;;;;;;;;22.43;62.87;96819.15;116836;1179;69907;-68
2021/09/17 12:13:27;;;;;;;;;;;;;;;22.48;62.71;96818.11;116874;1179;68430;-67
2021/09/17 12:15:57;;;;;;;;;;;;;;;22.55;62.46;96812.63;116825;1179;68488;-67
2021/09/17 12:18:29;;;;;;;;;;;;;;;22.38;62.68;96806.48;116935;1178;58703;-68
2021/09/17 12:20:59;;;;;;;;;;;;;;;22.39;62.91;96802.85;116814;1180;58790;-67
2021/09/17 12:23:49;;;;;;;;;;;;;;;22.24;63.65;96795.83;116929;1179;69008;-65
2021/09/17 12:26:19;;;;;;;;;;;;;;;22.25;63.23;96791.30;116938;1179;69278;-67
2021/09/17 12:28:49;;;;;;;;;;;;;;;22.26;62.85;96792.39;116855;1179;68416;-67
2021/09/17 12:31:31;;;;;;;;;;;;;;;22.14;63.04;96788.66;116921;1178;58733;-67
2021/09/17 12:34:04;;;;;;;;;;;;;;;22.03;64.04;96786.92;116909;1179;58752;-68
2021/09/17 12:36:33;;;;;;;;;;;;;;;21.93;64.60;96784.41;116866;1179;69639;-67
2021/09/17 12:39:04;;;;;;;;;;;;;;;21.91;64.50;96786.35;116918;1179;69244;-67
2021/09/17 12:41:33;;;;;;;;;;;;;;;21.80;65.27;96784.88;116871;1179;69586;-66
2021/09/17 12:44:08;;;;;;;;;;;;;;;21.76;65.15;96782.71;116869;1179;58740;-68
2021/09/17 12:46:41;;;;;;;;;;;;;;;21.69;65.29;96780.79;116861;1179;58732;-67
2021/09/17 12:49:13;;;;;;;;;;;;;;;21.69;65.45;96780.83;116948;1178;70014;-67
2021/09/17 12:51:54;;;;;;;;;;;;;;;21.57;65.96;96782.73;116828;1179;69261;-67
2021/09/17 12:54:34;;;;;;;;;;;;;;;21.54;66.56;96782.90;116964;1177;67360;-67